Time;durP1;ratioP1;P1;durP2;ratioP2;P2;SDS_P1;SDS_P2;PMS_P1;PMS_P2;Temp;Humidity;BMP_temperature;BMP_pressure;BME280_temperature;BME280_humidity;BME280_pressure;Samples;Min_cycle;Max_cycle;Signal;HPM_P1;HPM_P2
2022/02/21 00:04:15;;;;;;;9.80;1.50;;;;;6.40;99529.00;;;;9975294;29;20232;-90
2022/02/21 00:09:20;;;;;;;4.03;1.40;;;;;6.40;99506.00;;;;9998877;29;20237;-90
2022/02/21 00:14:26;;;;;;;6.97;1.97;;;;;6.10;99523.00;;;;9979799;29;20262;-89
2022/02/21 00:19:29;;;;;;;7.50;1.70;;;;;5.80;99524.00;;;;9992088;29;20208;-90
2022/02/21 00:24:45;;;;;;;7.53;1.93;;;;;5.60;99520.00;;;;9973501;29;20222;-90
2022/02/21 00:29:50;;;;;;;10.93;1.87;;;;;5.30;99519.00;;;;9990473;29;20261;-90
2022/02/21 00:34:53;;;;;;;6.50;2.27;;;;;5.20;99507.00;;;;9974042;29;20245;-89
2022/02/21 00:39:55;;;;;;;13.37;3.27;;;;;5.10;99524.00;;;;9968074;29;20195;-89
2022/02/21 00:44:59;;;;;;;6.40;1.67;;;;;5.00;99536.00;;;;9998512;29;20194;-90
2022/02/21 00:50:05;;;;;;;13.10;2.50;;;;;4.90;99530.00;;;;9987451;29;20194;-90
2022/02/21 00:55:14;;;;;;;8.67;2.17;;;;;4.90;99546.00;;;;9987950;29;20313;-91
2022/02/21 01:00:24;;;;;;;10.10;2.17;;;;;5.00;99548.00;;;;9985403;29;20239;-90
2022/02/21 01:05:48;;;;;;;4.93;2.07;;;;;5.00;99556.00;;;;9986170;29;20679;-90
2022/02/21 01:10:51;;;;;;;10.17;2.87;;;;;5.00;99570.00;;;;9938739;29;20236;-90
2022/02/21 01:15:59;;;;;;;9.37;1.90;;;;;5.00;99593.00;;;;9969208;29;20230;-91
2022/02/21 01:21:03;;;;;;;6.17;2.10;;;;;5.10;99597.00;;;;9968851;29;20222;-90
2022/02/21 01:26:23;;;;;;;7.83;1.50;;;;;5.20;99601.00;;;;9973819;29;20746;-90
2022/02/21 01:31:29;;;;;;;8.93;2.10;;;;;5.10;99609.00;;;;9998751;29;20747;-91
2022/02/21 01:36:34;;;;;;;8.97;1.57;;;;;5.10;99635.00;;;;10004449;29;20577;-91
2022/02/21 01:41:48;;;;;;;9.30;1.87;;;;;5.20;99653.00;;;;10014113;29;20207;-91
2022/02/21 01:47:03;;;;;;;7.17;1.73;;;;;5.10;99663.00;;;;10016997;29;20204;-91
2022/02/21 01:52:16;;;;;;;4.33;1.23;;;;;5.10;99672.00;;;;9984437;29;20239;-90
2022/02/21 01:57:20;;;;;;;8.57;2.00;;;;;5.10;99674.00;;;;9991377;29;20210;-90
2022/02/21 02:02:26;;;;;;;7.80;1.87;;;;;5.00;99634.00;;;;9994020;29;20206;-90
2022/02/21 02:07:59;;;;;;;5.87;2.17;;;;;5.00;99675.00;;;;9972046;29;20204;-91
2022/02/21 02:13:15;;;;;;;9.43;1.60;;;;;5.10;99690.00;;;;9986294;29;20238;-91
2022/02/21 02:18:30;;;;;;;8.60;1.70;;;;;5.00;99697.00;;;;10005945;29;20194;-92
2022/02/21 02:24:00;;;;;;;7.63;1.77;;;;;4.90;99686.00;;;;9984728;29;20241;-91
2022/02/21 02:29:52;;;;;;;12.27;2.60;;;;;4.90;99714.00;;;;9996513;29;20198;-91
2022/02/21 02:36:00;;;;;;;9.37;2.33;;;;;4.80;99696.00;;;;9986759;29;20215;-91
2022/02/21 02:41:19;;;;;;;8.13;1.40;;;;;4.80;99707.00;;;;9987326;29;20310;-91
2022/02/21 02:46:59;;;;;;;11.67;2.10;;;;;4.80;99713.00;;;;10000289;29;20209;-91
2022/02/21 02:52:33;;;;;;;6.63;1.90;;;;;4.90;99730.00;;;;10013859;29;20254;-91
2022/02/21 02:57:51;;;;;;;10.40;2.40;;;;;5.00;99739.00;;;;9982121;29;20194;-91
2022/02/21 03:03:38;;;;;;;12.97;2.53;;;;;5.00;99727.00;;;;9989537;29;20202;-91
2022/02/21 03:09:23;;;;;;;7.27;1.63;;;;;4.80;99739.00;;;;9978932;29;20619;-91
2022/02/21 03:15:06;;;;;;;7.37;2.03;;;;;4.70;99731.00;;;;10009882;29;20270;-92
2022/02/21 03:20:45;;;;;;;7.70;1.77;;;;;4.70;99721.00;;;;9957907;29;20210;-91
2022/02/21 03:26:18;;;;;;;16.07;2.63;;;;;4.60;99715.00;;;;9991331;29;20205;-91
2022/02/21 03:32:06;;;;;;;14.60;3.00;;;;;4.50;99696.00;;;;9971885;29;20309;-93
2022/02/21 03:38:09;;;;;;;13.10;2.03;;;;;4.60;99731.00;;;;9982130;29;20270;-92
2022/02/21 03:44:05;;;;;;;7.43;2.77;;;;;4.70;99747.00;;;;9986640;29;20746;-91
2022/02/21 03:50:07;;;;;;;9.27;2.37;;;;;4.80;99738.00;;;;10008249;29;20209;-92
2022/02/21 03:56:28;;;;;;;10.77;2.43;;;;;4.90;99761.00;;;;9986756;29;20238;-92
2022/02/21 04:02:26;;;;;;;12.07;2.30;;;;;5.00;99770.00;;;;9971085;29;20274;-92
2022/02/21 04:08:34;;;;;;;13.63;2.93;;;;;5.00;99764.00;;;;10000114;29;20183;-92
2022/02/21 04:15:42;;;;;;;11.03;2.80;;;;;5.00;99758.00;;;;9981828;29;20214;-92
2022/02/21 04:22:12;;;;;;;12.80;2.43;;;;;5.10;99760.00;;;;10009528;29;20286;-92
2022/02/21 04:28:10;;;;;;;16.17;2.73;;;;;5.00;99757.00;;;;9980675;29;20555;-91
2022/02/21 04:34:22;;;;;;;15.57;2.23;;;;;5.00;99758.00;;;;9986537;29;20252;-91
2022/02/21 04:40:22;;;;;;;6.83;1.73;;;;;5.00;99747.00;;;;9999414;29;20198;-90
2022/02/21 04:46:37;;;;;;;10.93;2.03;;;;;5.00;99779.00;;;;9983637;29;20228;-92
2022/02/21 04:52:56;;;;;;;10.50;2.30;;;;;5.00;99772.00;;;;9983033;29;20267;-92
2022/02/21 04:59:06;;;;;;;6.97;1.77;;;;;5.00;99773.00;;;;9992713;29;20201;-92
2022/02/21 05:05:24;;;;;;;11.20;2.00;;;;;4.90;99780.00;;;;10019665;29;20204;-92
2022/02/21 05:11:54;;;;;;;9.77;2.17;;;;;4.90;99787.00;;;;10012157;29;20209;-92
2022/02/21 05:18:32;;;;;;;;;;;;;;;;;;;;;
2022/02/21 05:25:13;;;;;;;6.80;1.53;;;;;4.60;99783.00;;;;9957939;29;20225;-92
2022/02/21 05:32:14;;;;;;;10.63;2.80;;;;;4.40;99780.00;;;;9982252;29;20262;-93
2022/02/21 05:38:50;;;;;;;;;;;;;;;;;;;;;
2022/02/21 05:45:36;;;;;;;4.53;1.40;;;;;4.20;99785.00;;;;9948900;29;20333;-92
2022/02/21 05:51:48;;;;;;;7.30;1.63;;;;;4.20;99795.00;;;;10001656;29;20202;-92
2022/02/21 05:58:08;;;;;;;6.37;1.60;;;;;4.20;99782.00;;;;10015547;29;20578;-92
2022/02/21 06:04:29;;;;;;;7.13;1.70;;;;;4.10;99775.00;;;;10012191;29;20198;-92
2022/02/21 06:11:19;;;;;;;9.00;1.60;;;;;4.10;99766.00;;;;9966774;29;20254;-92
2022/02/21 06:18:03;;;;;;;;;;;;;;;;;;;;;
2022/02/21 06:24:04;;;;;;;12.73;2.07;;;;;4.00;99779.00;;;;9998354;29;20720;-92
2022/02/21 06:31:08;;;;;;;8.27;2.30;;;;;3.90;99780.00;;;;10007139;29;20705;-92
2022/02/21 06:38:07;;;;;;;6.43;1.63;;;;;3.90;99778.00;;;;9984827;29;20338;-92
2022/02/21 06:45:27;;;;;;;;;;;;;;;;;;;;;
2022/02/21 06:52:08;;;;;;;10.87;1.93;;;;;3.90;99775.00;;;;9978931;29;20567;-94
2022/02/21 06:59:06;;;;;;;11.13;1.90;;;;;3.90;99777.00;;;;9994576;29;20261;-91
2022/02/21 07:05:53;;;;;;;12.23;1.73;;;;;4.00;99765.00;;;;9976827;29;20203;-92
2022/02/21 07:12:20;;;;;;;6.20;2.10;;;;;4.10;99750.00;;;;9951202;29;20222;-92
2022/02/21 07:18:51;;;;;;;10.27;2.40;;;;;4.40;99751.00;;;;9960805;29;20202;-93
2022/02/21 07:26:31;;;;;;;7.17;1.70;;;;;4.80;99751.00;;;;9982953;29;20238;-93
2022/02/21 07:33:54;;;;;;;9.17;1.90;;;;;5.20;99745.00;;;;9029419;29;28449823;-93
2022/02/21 07:42:15;;;;;;;;;;;;;;;;;;;;;
2022/02/21 07:49:47;;;;;;;6.83;1.70;;;;;5.40;99758.00;;;;9856536;30;20205;-92
2022/02/21 07:56:20;;;;;;;13.77;2.43;;;;;5.50;99742.00;;;;9824714;30;20325;-92
2022/02/21 08:03:03;;;;;;;7.20;2.30;;;;;5.80;99740.00;;;;9754589;30;20213;-93
2022/02/21 08:17:24;;;;;;;8.47;1.90;;;;;6.80;99716.00;;;;9885999;30;20219;-92
2022/02/21 08:24:18;;;;;;;12.83;2.50;;;;;6.50;99709.00;;;;9873995;29;20667;-92
2022/02/21 08:30:44;;;;;;;17.60;3.03;;;;;6.60;99706.00;;;;9879227;30;20251;-92
2022/02/21 08:38:04;;;;;;;12.93;2.83;;;;;6.80;99707.00;;;;9907306;29;20259;-93
2022/02/21 08:44:21;;;;;;;13.63;3.10;;;;;6.80;99692.00;;;;9974883;29;20213;-91
2022/02/21 08:50:52;;;;;;;13.83;2.50;;;;;6.60;99702.00;;;;10029549;29;20562;-92
2022/02/21 08:57:19;;;;;;;13.47;3.00;;;;;6.10;99706.00;;;;9992125;29;20727;-93
2022/02/21 09:04:49;;;;;;;17.63;4.00;;;;;5.50;99700.00;;;;9951505;29;20222;-92
2022/02/21 09:11:04;;;;;;;;;;;;;;;;;;;;;
2022/02/21 09:23:42;;;;;;;17.07;3.27;;;;;5.70;99646.00;;;;9986636;29;20325;-90
2022/02/21 09:30:11;;;;;;;18.30;3.57;;;;;5.80;99641.00;;;;9985602;29;20259;-91
2022/02/21 09:36:27;;;;;;;16.10;3.77;;;;;6.10;99605.00;;;;9994316;29;20252;-90
2022/02/21 09:42:24;;;;;;;16.23;4.00;;;;;6.50;99623.00;;;;9979944;29;20216;-91
2022/02/21 09:48:36;;;;;;;15.93;3.73;;;;;6.40;99611.00;;;;10002808;29;20270;-91
2022/02/21 09:54:45;;;;;;;16.57;3.10;;;;;6.40;99605.00;;;;9978757;29;20210;-92
2022/02/21 10:08:18;;;;;;;16.23;3.47;;;;;6.40;99572.00;;;;9994927;29;20214;-94
2022/02/21 10:14:46;;;;;;;;;;;;;;;;;;;;;
2022/02/21 10:20:39;;;;;;;17.27;3.60;;;;;6.60;99573.00;;;;9990773;29;20198;-91
2022/02/21 10:27:03;;;;;;;25.90;4.10;;;;;7.00;99548.00;;;;9989821;29;20210;-91
2022/02/21 10:33:12;;;;;;;17.67;4.37;;;;;9.10;99535.00;;;;9995098;29;20570;-92
2022/02/21 10:38:43;;;;;;;17.57;5.10;;;;;11.00;99540.00;;;;10026015;29;20574;-92
2022/02/21 10:45:01;;;;;;;18.83;4.20;;;;;9.10;99567.00;;;;10008476;29;20560;-92
2022/02/21 10:51:31;;;;;;;19.77;4.40;;;;;7.60;99547.00;;;;9967644;29;20198;-91
2022/02/21 10:57:27;;;;;;;22.17;4.00;;;;;6.90;99547.00;;;;9970437;29;20222;-92
2022/02/21 11:09:58;;;;;;;27.20;5.47;;;;;6.60;99581.00;;;;9887699;29;20210;-90
2022/02/21 11:15:24;;;;;;;20.37;4.23;;;;;6.40;99587.00;;;;9959703;29;20226;-90
2022/02/21 11:20:38;;;;;;;21.40;4.40;;;;;6.70;99574.00;;;;9988532;29;20629;-91
2022/02/21 11:26:38;;;;;;;15.67;4.40;;;;;6.70;99579.00;;;;9987836;29;20199;-90
2022/02/21 11:31:51;;;;;;;24.40;4.83;;;;;6.30;99571.00;;;;9967462;29;20210;-90
2022/02/21 11:37:39;;;;;;;19.37;4.40;;;;;6.40;99557.00;;;;9975274;29;20213;-90
2022/02/21 11:43:01;;;;;;;25.73;5.40;;;;;6.70;99564.00;;;;9998791;29;20270;-90
2022/02/21 11:48:57;;;;;;;24.03;6.03;;;;;7.30;99567.00;;;;9980602;29;20198;-90
2022/02/21 11:54:13;;;;;;;19.20;4.60;;;;;7.30;99565.00;;;;9985552;29;20202;-91
2022/02/21 11:59:51;;;;;;;27.97;5.67;;;;;8.00;99579.00;;;;9993715;29;20202;-92
2022/02/21 12:05:22;;;;;;;28.50;6.53;;;;;8.50;99601.00;;;;10003121;29;20206;-92
2022/02/21 12:11:03;;;;;;;23.27;5.30;;;;;7.60;99596.00;;;;9949544;29;20214;-91
2022/02/21 12:16:19;;;;;;;25.40;5.33;;;;;7.30;99607.00;;;;9976974;29;20678;-91
2022/02/21 12:21:55;;;;;;;32.17;5.90;;;;;7.10;99607.00;;;;10002538;29;20222;-90
2022/02/21 12:27:37;;;;;;;20.50;4.53;;;;;6.90;99616.00;;;;9971394;29;20199;-91
2022/02/21 12:33:12;;;;;;;33.07;6.10;;;;;7.00;99622.00;;;;9965774;29;20271;-91
2022/02/21 12:38:29;;;;;;;36.53;5.90;;;;;6.70;99612.00;;;;9946616;29;20687;-90
2022/02/21 12:44:04;;;;;;;33.33;5.30;;;;;6.80;99606.00;;;;10001189;29;20224;-90
2022/02/21 12:49:25;;;;;;;20.20;5.13;;;;;6.90;99625.00;;;;9968931;29;20209;-90
2022/02/21 12:54:50;;;;;;;22.57;5.13;;;;;7.20;99638.00;;;;10000184;29;20305;-91
2022/02/21 13:00:34;;;;;;;20.20;4.70;;;;;7.20;99664.00;;;;9974818;29;20671;-90
2022/02/21 13:06:15;;;;;;;18.20;5.20;;;;;7.30;99681.00;;;;9972058;29;20202;-92
2022/02/21 13:11:54;;;;;;;18.40;3.57;;;;;7.50;99681.00;;;;9984537;29;20209;-90
2022/02/21 13:17:14;;;;;;;22.87;4.17;;;;;7.80;99672.00;;;;9999575;29;20310;-92
2022/02/21 13:22:30;;;;;;;27.80;5.87;;;;;8.10;99678.00;;;;9968391;29;20254;-90
2022/02/21 13:28:18;;;;;;;23.27;4.23;;;;;8.30;99681.00;;;;9987182;29;20186;-92
2022/02/21 13:33:59;;;;;;;17.60;3.47;;;;;8.00;99679.00;;;;9977217;29;20242;-90
2022/02/21 13:40:34;;;;;;;19.17;3.50;;;;;7.70;99742.00;;;;9932594;29;20230;-91
2022/02/21 13:46:29;;;;;;;9.83;3.03;;;;;7.20;99831.00;;;;9980007;29;20306;-91
2022/02/21 13:52:12;;;;;;;11.27;2.90;;;;;6.30;99916.00;;;;9984854;29;20244;-90
2022/02/21 13:57:22;;;;;;;7.93;2.00;;;;;6.40;99945.00;;;;9976291;29;20210;-89
2022/02/21 14:02:35;;;;;;;14.77;3.17;;;;;7.00;99948.00;;;;10019909;29;20212;-90
2022/02/21 14:08:16;;;;;;;7.80;2.80;;;;;8.00;99956.00;;;;9980583;29;20210;-90
2022/02/21 14:13:56;;;;;;;17.53;4.47;;;;;9.20;99989.00;;;;9978656;29;20284;-90
2022/02/21 14:19:13;;;;;;;18.33;3.30;;;;;9.20;99982.00;;;;9989137;29;20276;-90
2022/02/21 14:24:53;;;;;;;21.03;3.70;;;;;8.90;100008.00;;;;9969368;29;20227;-90
2022/02/21 14:30:20;;;;;;;18.97;4.47;;;;;8.60;100021.00;;;;9953436;29;20211;-90
2022/02/21 14:35:39;;;;;;;17.80;3.83;;;;;9.00;100037.00;;;;10010087;29;20247;-90
2022/02/21 14:41:09;;;;;;;9.43;2.77;;;;;9.30;100024.00;;;;9993359;29;20237;-89
2022/02/21 14:46:41;;;;;;;19.97;3.63;;;;;9.70;100076.00;;;;9955588;29;20232;-90
2022/02/21 14:52:29;;;;;;;13.27;2.40;;;;;9.80;100081.00;;;;9988668;29;20234;-92
2022/02/21 14:57:42;;;;;;;14.47;2.67;;;;;9.40;100086.00;;;;9976944;29;20249;-90
2022/02/21 15:03:02;;;;;;;13.37;2.63;;;;;9.40;100126.00;;;;9966924;29;20254;-91
2022/02/21 15:08:08;;;;;;;9.73;2.43;;;;;9.00;100164.00;;;;9987221;29;20214;-91
2022/02/21 15:13:14;;;;;;;9.70;3.17;;;;;8.80;100154.00;;;;10003564;29;20206;-90
2022/02/21 15:18:45;;;;;;;11.47;2.70;;;;;8.80;100129.00;;;;9989499;29;20214;-91
2022/02/21 15:24:17;;;;;;;10.37;3.27;;;;;8.70;100194.00;;;;9963636;29;20226;-91
2022/02/21 15:30:05;;;;;;;8.00;2.60;;;;;8.60;100191.00;;;;9982402;29;20298;-92
2022/02/21 15:36:23;;;;;;;12.20;2.37;;;;;8.40;100258.00;;;;10028960;29;20689;-92
2022/02/21 15:41:54;;;;;;;12.00;3.00;;;;;8.20;100235.00;;;;9974756;29;20214;-93
2022/02/21 15:47:42;;;;;;;12.77;3.03;;;;;8.00;100277.00;;;;9968471;29;20203;-93
2022/02/21 15:53:44;;;;;;;13.83;2.40;;;;;8.20;100321.00;;;;9988164;29;20198;-90
2022/02/21 15:59:35;;;;;;;17.17;3.50;;;;;8.00;100347.00;;;;9965909;29;20289;-91
2022/02/21 16:05:04;;;;;;;13.60;2.07;;;;;7.90;100340.00;;;;9973876;29;20298;-91
2022/02/21 16:10:09;;;;;;;13.87;2.93;;;;;7.90;100364.00;;;;9985083;29;20768;-90
2022/02/21 16:15:34;;;;;;;10.70;2.80;;;;;7.90;100392.00;;;;9973704;29;20239;-92
2022/02/21 16:21:01;;;;;;;13.17;2.60;;;;;7.90;100410.00;;;;10001301;29;20218;-91
2022/02/21 16:26:33;;;;;;;14.90;3.40;;;;;7.90;100423.00;;;;10008431;29;20190;-91
2022/02/21 16:31:58;;;;;;;12.10;2.93;;;;;7.90;100433.00;;;;9989170;29;20202;-90
2022/02/21 16:37:04;;;;;;;14.17;2.50;;;;;7.80;100453.00;;;;9986934;29;20254;-91
2022/02/21 16:42:23;;;;;;;13.23;2.97;;;;;7.80;100485.00;;;;9972192;29;20688;-91
2022/02/21 16:47:30;;;;;;;9.93;2.93;;;;;7.60;100492.00;;;;9956247;29;20233;-90
2022/02/21 16:53:30;;;;;;;17.63;3.43;;;;;7.40;100483.00;;;;9985657;29;20288;-91
2022/02/21 16:59:17;;;;;;;12.50;3.03;;;;;7.20;100522.00;;;;9991506;29;20213;-90
2022/02/21 17:04:33;;;;;;;11.43;3.23;;;;;7.10;100552.00;;;;9972453;29;20883;-90
2022/02/21 17:09:49;;;;;;;18.67;3.97;;;;;6.90;100557.00;;;;9986705;29;20548;-89
2022/02/21 17:15:04;;;;;;;17.27;3.50;;;;;6.90;100550.00;;;;9986649;29;20563;-90
2022/02/21 17:20:20;;;;;;;23.50;4.10;;;;;6.90;100577.00;;;;9976282;29;20706;-90
2022/02/21 17:25:31;;;;;;;15.20;3.00;;;;;6.80;100583.00;;;;9993878;29;20682;-91
2022/02/21 17:31:01;;;;;;;16.77;2.17;;;;;6.70;100597.00;;;;9996917;29;20222;-91
2022/02/21 17:36:40;;;;;;;14.17;4.13;;;;;6.70;100602.00;;;;9996582;29;20210;-90
2022/02/21 17:41:55;;;;;;;16.80;4.63;;;;;6.80;100611.00;;;;9996407;29;20281;-91
2022/02/21 17:48:07;;;;;;;14.20;3.30;;;;;6.90;100631.00;;;;9996577;29;20209;-91
2022/02/21 17:54:29;;;;;;;15.97;4.60;;;;;6.90;100639.00;;;;9996009;29;20202;-91
2022/02/21 18:00:41;;;;;;;26.23;4.40;;;;;6.90;100669.00;;;;9996600;29;20237;-91
2022/02/21 18:07:18;;;;;;;23.10;3.80;;;;;6.90;100681.00;;;;9997702;29;20295;-90
2022/02/21 18:13:40;;;;;;;16.43;3.53;;;;;6.90;100691.00;;;;9964874;29;20305;-90
2022/02/21 18:19:05;;;;;;;16.33;3.43;;;;;6.90;100725.00;;;;9995774;29;20229;-92
2022/02/21 18:24:37;;;;;;;20.20;4.17;;;;;6.80;100737.00;;;;10010738;29;20230;-89
2022/02/21 18:30:09;;;;;;;18.60;3.33;;;;;6.80;100740.00;;;;10017782;29;20686;-90
2022/02/21 18:36:25;;;;;;;11.60;3.17;;;;;6.60;100765.00;;;;9876346;30;20219;-90
2022/02/21 18:42:07;;;;;;;18.53;3.77;;;;;6.60;100779.00;;;;10004872;29;20205;-91
2022/02/21 18:48:42;;;;;;;10.87;3.03;;;;;6.50;100790.00;;;;10011943;29;20205;-90
2022/02/21 18:55:02;;;;;;;14.03;3.60;;;;;6.50;100798.00;;;;9995008;29;20206;-91
2022/02/21 19:01:18;;;;;;;14.17;3.70;;;;;6.50;100822.00;;;;10001925;29;20292;-91
2022/02/21 19:07:35;;;;;;;23.30;3.60;;;;;6.50;100835.00;;;;10012808;29;20239;-91
2022/02/21 19:13:37;;;;;;;24.23;4.20;;;;;6.40;100853.00;;;;9979647;29;20230;-91
2022/02/21 19:19:36;;;;;;;17.73;4.27;;;;;6.30;100861.00;;;;9973244;29;20218;-91
2022/02/21 19:26:01;;;;;;;11.33;3.13;;;;;6.20;100887.00;;;;9986689;29;20194;-91
2022/02/21 19:32:40;;;;;;;16.43;4.27;;;;;6.30;100895.00;;;;9979462;29;20213;-91
2022/02/21 19:38:56;;;;;;;18.23;3.70;;;;;6.40;100910.00;;;;9981856;29;20242;-91
2022/02/21 19:45:43;;;;;;;17.73;3.77;;;;;6.30;100920.00;;;;9992301;29;20590;-91
2022/02/21 19:53:00;;;;;;;11.97;3.07;;;;;6.40;100936.00;;;;9981523;29;20237;-91
2022/02/21 19:59:21;;;;;;;15.73;3.37;;;;;6.60;100958.00;;;;9980754;29;20252;-90
2022/02/21 20:05:42;;;;;;;14.20;3.10;;;;;6.70;100964.00;;;;9966822;29;20217;-91
2022/02/21 20:11:52;;;;;;;13.43;2.87;;;;;6.70;100974.00;;;;9958200;29;20433;-91
2022/02/21 20:18:06;;;;;;;10.73;3.27;;;;;6.50;100986.00;;;;10000011;29;20241;-90
2022/02/21 20:23:55;;;;;;;16.67;3.10;;;;;6.50;101000.00;;;;9999788;29;20230;-91
2022/02/21 20:29:57;;;;;;;7.50;2.07;;;;;6.60;101005.00;;;;9965578;29;20215;-89
2022/02/21 20:35:35;;;;;;;7.93;2.80;;;;;6.90;101034.00;;;;9991105;29;20207;-90
2022/02/21 20:41:46;;;;;;;18.27;3.47;;;;;6.90;101050.00;;;;9994845;29;20293;-90
2022/02/21 20:47:27;;;;;;;10.80;2.57;;;;;6.90;101061.00;;;;9966414;29;20226;-90
2022/02/21 20:52:57;;;;;;;11.90;2.37;;;;;7.00;101079.00;;;;9965174;29;20206;-89
2022/02/21 20:58:04;;;;;;;10.77;2.57;;;;;7.10;101101.00;;;;9984508;29;20229;-88
2022/02/21 21:03:16;;;;;;;9.17;2.00;;;;;7.20;101115.00;;;;9969035;29;20267;-89
2022/02/21 21:15:48;;;;;;;13.50;3.23;;;;;7.10;101146.00;;;;9989556;29;20225;-89
2022/02/21 21:21:45;;;;;;;11.43;2.27;;;;;7.00;101155.00;;;;9965120;29;20250;-91
2022/02/21 21:29:04;;;;;;;12.03;2.80;;;;;6.80;101170.00;;;;9985632;29;20202;-90
2022/02/21 21:35:41;;;;;;;16.63;3.10;;;;;6.70;101180.00;;;;9977218;29;20686;-91
2022/02/21 21:41:26;;;;;;;14.60;2.33;;;;;6.70;101198.00;;;;9984374;29;20289;-91
2022/02/21 22:02:36;;;;;;;13.27;3.77;;;;;6.20;101213.00;;;;9942889;29;20203;-90
2022/02/21 22:09:40;;;;;;;;;;;;;;;;;;;;;
2022/02/21 22:16:23;;;;;;;18.93;4.23;;;;;6.30;101241.00;;;;9944274;29;20302;-92
2022/02/21 22:23:17;;;;;;;17.00;3.07;;;;;6.40;101260.00;;;;9844318;29;20311;-89
2022/02/21 22:44:10;;;;;;;15.30;3.50;;;;;6.20;101289.00;;;;9972889;29;20202;-90
2022/02/21 22:49:37;;;;;;;25.33;3.63;;;;;6.20;101298.00;;;;10003610;29;20229;-90
2022/02/21 22:55:58;;;;;;;18.67;4.10;;;;;6.00;101302.00;;;;9993643;29;20812;-90
2022/02/21 23:02:48;;;;;;;16.87;3.73;;;;;5.80;101300.00;;;;9988934;29;20214;-90
2022/02/21 23:09:10;;;;;;;20.73;3.13;;;;;5.70;101317.00;;;;9990457;29;20199;-90
2022/02/21 23:15:07;;;;;;;26.13;3.70;;;;;5.60;101315.00;;;;9990037;29;20290;-90
2022/02/21 23:21:49;;;;;;;;;;;;;;;;;;;;;
2022/02/21 23:28:38;;;;;;;34.00;4.27;;;;;5.50;101324.00;;;;9985644;29;20198;-90
2022/02/21 23:34:47;;;;;;;25.20;5.13;;;;;5.60;101343.00;;;;9987679;29;20222;-90
2022/02/21 23:41:15;;;;;;;23.70;4.57;;;;;5.60;101344.00;;;;9981129;29;20194;-90
2022/02/21 23:47:47;;;;;;;23.30;4.60;;;;;5.50;101357.00;;;;9979882;29;20190;-90
2022/02/21 23:54:13;;;;;;;17.80;3.93;;;;;5.40;101358.00;;;;9955181;29;20237;-90
